Terminal Aerodrome Forecast
Issued by NWS

Home | Current Version | Previous Version | Text Only | Print | Product List | Glossary On
Versions: 1 2 3 4 5 6 7 8 9 10 11 12 13 14 15 16 17 18 19 20 21 22 23 24 25 26
000
FTUS44 KEWX 180703 AAA
TAFSSF
TAF AMD
KSSF 180703Z 1807/1906 04005KT P6SM SCT010
     FM180900 04004KT 5SM BR BKN007 OVC012
     FM181600 18005KT P6SM VCSH BKN030
     FM181800 18007KT P6SM VCTS SCT030CB BKN150
     FM182300 19005KT P6SM SCT030=

USA.gov is the U.S. government's official web portal to all federal, state and local government web resources and services.